Fannett, Texas
Current Conditions -  °F | °C
As of 7:53 AM on Saturday 22 Nov 2014 (Local Time) from KBPT Reporting Station
Clear Clear  
Wind Chill: 59°   Ceiling: Unl
Heat Index: 59°   Visibility: 10mi
Dew Point: 54°   Wind: 13mph
Humidity: 83%   Direction: 90°E
Pressure: 30.12"   Gusts: NA
Location:  29.9571°N, 94.1363°W
Report Text: KBPT 221353Z 09011KT 10SM CLR 15/12 A3012 RMK AO2 SLP198 T01500122
Loading
Personal Weather Stations






























Interactive Weather Map New forecast layout! Learn more

10-Day Weather Forecast

Advertisements
Track Severe Weather on mobile